createdAt,value
2023-05-05T00:01:14.700Z,5.32
2023-05-05T00:04:17.845Z,5.68
2023-05-05T00:07:20.149Z,5.95
2023-05-05T00:10:24.183Z,5.77
2023-05-05T00:13:26.096Z,5.78
2023-05-05T00:16:27.801Z,5.55
2023-05-05T00:19:29.920Z,6.07
2023-05-05T00:22:32.144Z,5.85
2023-05-05T00:25:34.365Z,6.20
2023-05-05T00:28:36.226Z,6.40
2023-05-05T00:31:38.798Z,5.37
2023-05-05T00:34:42.213Z,6.00
2023-05-05T00:37:44.384Z,5.72
2023-05-05T00:40:46.448Z,6.20
2023-05-05T00:43:48.779Z,5.97
2023-05-05T00:46:52.196Z,5.68
2023-05-05T00:49:54.062Z,6.15
2023-05-05T00:53:00.770Z,6.47
2023-05-05T00:56:03.920Z,5.65
2023-05-05T00:59:07.142Z,5.55
2023-05-05T01:02:10.572Z,5.77
2023-05-05T01:05:14.160Z,5.90
2023-05-05T01:08:36.405Z,5.95
2023-05-05T01:11:46.635Z,6.10
2023-05-05T01:14:59.246Z,6.20
2023-05-05T01:18:11.655Z,6.18
2023-05-05T01:21:31.671Z,6.80
2023-05-05T01:25:02.689Z,6.85
2023-05-05T01:28:25.032Z,6.22
2023-05-05T01:31:52.105Z,6.38
2023-05-05T01:34:57.559Z,6.30
2023-05-05T01:38:16.749Z,6.22
2023-05-05T01:41:27.579Z,6.30
2023-05-05T01:44:31.462Z,6.53
2023-05-05T01:47:33.835Z,6.40
2023-05-05T01:50:37.335Z,6.32
2023-05-05T01:53:41.722Z,6.50
2023-05-05T01:56:46.447Z,6.03
2023-05-05T01:59:51.612Z,6.32
2023-05-05T02:02:57.346Z,6.00
2023-05-05T02:06:02.060Z,6.30
2023-05-05T02:09:06.577Z,6.15
2023-05-05T02:12:09.552Z,6.18
2023-05-05T02:15:14.639Z,6.57
2023-05-05T02:18:18.322Z,6.30
2023-05-05T02:21:21.000Z,6.63
2023-05-05T02:24:23.296Z,6.40
2023-05-05T02:27:26.881Z,6.75
2023-05-05T02:30:42.389Z,6.60
2023-05-05T02:33:47.508Z,6.82
2023-05-05T02:36:53.460Z,6.97
2023-05-05T02:40:01.690Z,6.85
2023-05-05T02:43:11.404Z,6.55
2023-05-05T02:46:13.792Z,6.77
2023-05-05T02:49:19.911Z,6.78
2023-05-05T02:52:23.008Z,7.28
2023-05-05T02:55:42.985Z,6.90
2023-05-05T02:58:54.902Z,7.03
2023-05-05T03:02:25.272Z,6.82
2023-05-05T03:05:35.265Z,6.75
2023-05-05T03:09:13.890Z,6.67
2023-05-05T03:12:22.412Z,6.72
2023-05-05T03:15:50.050Z,6.63
2023-05-05T03:19:07.325Z,6.57
2023-05-05T03:22:10.718Z,6.25
2023-05-05T03:25:17.445Z,7.07
2023-05-05T03:28:20.436Z,6.30
2023-05-05T03:31:24.375Z,6.45
2023-05-05T03:34:30.056Z,6.60
2023-05-05T03:37:34.272Z,6.82
2023-05-05T03:40:44.141Z,6.00
2023-05-05T03:43:50.559Z,6.20
2023-05-05T03:46:52.447Z,6.82
2023-05-05T03:49:55.311Z,6.57
2023-05-05T03:52:57.089Z,6.60
2023-05-05T03:55:59.691Z,6.88
2023-05-05T03:59:01.313Z,7.05
2023-05-05T04:02:04.668Z,6.70
2023-05-05T04:05:06.401Z,6.80
2023-05-05T04:08:08.602Z,6.47
2023-05-05T04:11:19.891Z,7.00
2023-05-05T04:14:25.587Z,7.03
2023-05-05T04:17:28.219Z,6.93
2023-05-05T04:20:33.926Z,6.37
2023-05-05T04:23:35.784Z,6.75
2023-05-05T04:26:38.435Z,6.88
2023-05-05T04:29:41.154Z,7.00
2023-05-05T04:32:43.136Z,7.43
2023-05-05T04:35:45.684Z,6.60
2023-05-05T04:38:50.451Z,7.05
2023-05-05T04:41:53.465Z,6.73
2023-05-05T04:44:56.505Z,7.15
2023-05-05T04:48:00.262Z,6.95
2023-05-05T04:51:08.289Z,6.93
2023-05-05T04:54:11.518Z,6.70
2023-05-05T04:57:13.520Z,6.68
2023-05-05T05:00:16.882Z,7.20
2023-05-05T05:03:19.111Z,6.78
2023-05-05T05:06:22.145Z,7.03
2023-05-05T05:09:27.395Z,6.65
2023-05-05T05:12:33.374Z,7.00
2023-05-05T05:15:38.383Z,6.82
2023-05-05T05:18:41.024Z,7.10
2023-05-05T05:21:43.144Z,6.33
2023-05-05T05:24:45.324Z,7.20
2023-05-05T05:28:02.009Z,6.95
2023-05-05T05:31:12.055Z,7.05
2023-05-05T05:34:16.986Z,6.80
2023-05-05T05:37:20.631Z,7.07
2023-05-05T05:40:25.467Z,7.20
2023-05-05T05:43:31.114Z,6.57
2023-05-05T05:46:35.905Z,7.15
2023-05-05T05:49:38.852Z,7.13
2023-05-05T05:52:43.296Z,7.43
2023-05-05T05:55:48.102Z,6.78
2023-05-05T05:59:01.510Z,7.07
2023-05-05T06:02:08.226Z,7.28
2023-05-05T06:05:13.581Z,7.00
2023-05-05T06:08:17.352Z,7.43
2023-05-05T06:11:26.908Z,6.63
2023-05-05T06:14:32.564Z,7.00
2023-05-05T06:17:35.576Z,7.03
2023-05-05T06:20:40.269Z,7.20
2023-05-05T06:23:47.272Z,7.03
2023-05-05T06:27:01.225Z,7.15
2023-05-05T06:30:09.791Z,7.28
2023-05-05T06:33:12.575Z,6.90
2023-05-05T06:36:19.045Z,7.03
2023-05-05T06:39:23.013Z,6.90
2023-05-05T06:42:25.785Z,6.85
2023-05-05T06:45:31.134Z,6.80
2023-05-05T06:48:35.202Z,6.60
2023-05-05T06:51:36.822Z,6.70
2023-05-05T06:54:41.053Z,6.70
2023-05-05T06:57:43.343Z,6.67
2023-05-05T07:00:48.948Z,6.35
2023-05-05T07:04:00.160Z,6.70
2023-05-05T07:07:06.157Z,6.40
2023-05-05T07:10:09.643Z,6.03
2023-05-05T07:13:21.064Z,5.80
2023-05-05T07:16:25.402Z,6.28
2023-05-05T07:19:28.619Z,6.05
2023-05-05T07:22:31.370Z,6.23
2023-05-05T07:25:34.918Z,6.40
2023-05-05T07:28:40.958Z,5.55
2023-05-05T07:31:45.018Z,5.57
2023-05-05T07:34:47.447Z,5.60
2023-05-05T07:37:52.187Z,5.27
2023-05-05T07:40:56.987Z,5.07
2023-05-05T07:44:04.414Z,4.90
2023-05-05T07:47:07.621Z,4.95
2023-05-05T07:50:10.674Z,5.03
2023-05-05T07:53:14.908Z,4.77
2023-05-05T07:56:21.572Z,4.80
2023-05-05T07:59:26.637Z,4.72
2023-05-05T08:02:28.555Z,4.80
2023-05-05T08:05:33.613Z,4.68
2023-05-05T08:08:36.447Z,5.10
2023-05-05T08:11:51.733Z,5.30
2023-05-05T08:15:03.142Z,4.70
2023-05-05T08:18:15.144Z,5.30
2023-05-05T08:21:22.825Z,5.13
2023-05-05T08:24:26.105Z,5.13
2023-05-05T08:27:28.453Z,4.90
2023-05-05T08:30:31.916Z,5.55
2023-05-05T08:33:33.791Z,5.45
2023-05-05T08:36:36.610Z,5.20
2023-05-05T08:39:39.432Z,5.17
2023-05-05T08:42:48.860Z,4.72
2023-05-05T08:45:56.355Z,4.95
2023-05-05T08:49:03.945Z,5.10
2023-05-05T08:52:10.172Z,5.10
2023-05-05T08:55:23.655Z,4.50
2023-05-05T08:58:30.754Z,4.45
2023-05-05T09:01:37.562Z,4.35
2023-05-05T09:04:40.904Z,4.25
2023-05-05T09:07:47.231Z,4.30
2023-05-05T09:10:51.342Z,4.10
2023-05-05T09:14:02.339Z,4.05
2023-05-05T09:17:06.039Z,4.45
2023-05-05T09:20:13.811Z,4.50
2023-05-05T09:23:26.698Z,4.50
2023-05-05T09:26:36.507Z,4.90
2023-05-05T09:29:42.750Z,4.75
2023-05-05T09:32:55.594Z,4.07
2023-05-05T09:35:57.602Z,4.20
2023-05-05T09:39:14.936Z,4.40
2023-05-05T09:42:20.410Z,4.40
2023-05-05T09:45:28.138Z,4.65
2023-05-05T09:48:32.368Z,4.75
2023-05-05T09:51:34.265Z,4.30
2023-05-05T09:54:42.618Z,4.90
2023-05-05T09:57:47.625Z,3.90
2023-05-05T10:00:53.423Z,3.97
2023-05-05T10:03:55.252Z,3.95
2023-05-05T10:07:00.933Z,3.88
2023-05-05T10:10:07.446Z,3.70
2023-05-05T10:13:11.519Z,3.97
2023-05-05T10:16:18.564Z,4.47
2023-05-05T10:19:24.324Z,4.57
2023-05-05T10:22:31.113Z,4.20
2023-05-05T10:25:51.293Z,3.42
2023-05-05T10:29:04.147Z,3.53
2023-05-05T10:32:50.169Z,3.45
2023-05-05T10:35:56.646Z,3.72
2023-05-05T10:39:04.554Z,3.58
2023-05-05T10:42:29.858Z,3.70
2023-05-05T10:45:40.428Z,3.87
2023-05-05T10:49:03.031Z,4.30
2023-05-05T10:52:12.266Z,3.85
2023-05-05T10:56:01.862Z,4.30
2023-05-05T10:59:25.425Z,4.40
2023-05-05T11:02:31.678Z,3.93
2023-05-05T11:05:35.422Z,3.80
2023-05-05T11:08:45.570Z,3.70
2023-05-05T11:12:10.869Z,4.00
2023-05-05T11:15:31.899Z,3.90
2023-05-05T11:18:38.357Z,3.87
2023-05-05T11:22:07.415Z,3.80
2023-05-05T11:25:47.261Z,4.10
2023-05-05T11:28:59.561Z,3.90
2023-05-05T11:32:14.110Z,3.90
2023-05-05T11:35:16.267Z,4.10
2023-05-05T11:38:41.618Z,3.90
2023-05-05T11:42:10.139Z,4.20
2023-05-05T11:45:26.746Z,3.85
2023-05-05T11:48:28.925Z,4.32
2023-05-05T11:51:35.052Z,4.03
2023-05-05T11:54:41.316Z,4.23
2023-05-05T11:57:42.936Z,4.18
2023-05-05T12:00:46.027Z,4.03
2023-05-05T12:03:49.532Z,3.80
2023-05-05T12:06:52.279Z,4.00
2023-05-05T12:09:55.826Z,4.00
2023-05-05T12:12:59.666Z,3.80
2023-05-05T12:16:17.741Z,4.00
2023-05-05T12:19:19.467Z,3.80
2023-05-05T12:22:31.893Z,3.83
2023-05-05T12:25:41.421Z,4.00
2023-05-05T12:28:47.468Z,4.13
2023-05-05T12:32:00.832Z,3.92
2023-05-05T12:35:06.569Z,5.05
2023-05-05T12:38:08.352Z,4.70
2023-05-05T12:41:11.285Z,4.23
2023-05-05T12:44:14.356Z,4.55
2023-05-05T12:47:33.093Z,4.05
2023-05-05T12:50:34.945Z,4.05
2023-05-05T12:53:40.148Z,4.10
2023-05-05T12:56:47.485Z,4.00
2023-05-05T13:00:00.499Z,4.50
2023-05-05T13:03:03.560Z,4.10
2023-05-05T13:06:42.151Z,4.80
2023-05-05T13:09:47.627Z,4.40
2023-05-05T13:12:49.716Z,4.77
2023-05-05T13:15:54.184Z,5.18
2023-05-05T13:19:03.684Z,5.20
2023-05-05T13:22:19.297Z,4.45
2023-05-05T13:25:21.739Z,4.33
2023-05-05T13:28:24.540Z,4.43
2023-05-05T13:31:27.748Z,4.50
2023-05-05T13:34:31.586Z,3.88
2023-05-05T13:37:36.981Z,4.00
2023-05-05T13:40:39.697Z,4.37
2023-05-05T13:43:47.363Z,4.20
2023-05-05T13:46:52.493Z,3.83
2023-05-05T13:49:58.894Z,4.13
2023-05-05T13:53:01.569Z,4.28
2023-05-05T13:56:03.534Z,3.90
2023-05-05T13:59:06.350Z,4.20
2023-05-05T14:02:12.513Z,4.13
2023-05-05T14:05:15.875Z,4.13
2023-05-05T14:08:20.300Z,3.80
2023-05-05T14:11:23.280Z,3.73
2023-05-05T14:14:25.690Z,4.60
2023-05-05T14:17:28.497Z,5.70
2023-05-05T14:20:32.318Z,3.70
2023-05-05T14:23:34.040Z,3.80
2023-05-05T14:26:36.020Z,3.80
2023-05-05T14:29:38.741Z,3.60
2023-05-05T14:32:41.984Z,3.40
2023-05-05T14:35:44.963Z,3.35
2023-05-05T14:38:55.393Z,3.10
2023-05-05T14:41:57.737Z,3.60
2023-05-05T14:45:03.747Z,3.60
2023-05-05T14:48:05.922Z,3.60
2023-05-05T14:51:07.515Z,4.00
2023-05-05T14:54:24.172Z,4.82
2023-05-05T14:57:32.896Z,4.43
2023-05-05T15:00:37.057Z,4.00
2023-05-05T15:03:39.737Z,3.70
2023-05-05T15:06:46.644Z,3.60
2023-05-05T15:09:53.390Z,3.78
2023-05-05T15:13:01.950Z,3.63
2023-05-05T15:16:10.868Z,3.67
2023-05-05T15:19:23.610Z,3.70
2023-05-05T15:25:51.578Z,3.15
2023-05-05T15:28:57.931Z,3.40
2023-05-05T15:32:01.572Z,3.30
2023-05-05T15:35:07.510Z,3.45
2023-05-05T15:38:10.375Z,3.30
2023-05-05T15:41:13.677Z,3.60
2023-05-05T15:44:18.295Z,3.33
2023-05-05T15:47:20.723Z,3.77
2023-05-05T15:50:23.713Z,3.80
2023-05-05T15:53:26.794Z,3.40
2023-05-05T15:56:30.075Z,3.80
2023-05-05T15:59:32.870Z,3.60
2023-05-05T16:02:36.070Z,4.20
2023-05-05T16:05:40.403Z,3.58
2023-05-05T16:08:43.756Z,3.70
2023-05-05T16:11:45.339Z,4.10
2023-05-05T16:14:48.248Z,4.07
2023-05-05T16:17:54.175Z,3.90
2023-05-05T16:20:56.404Z,3.92
2023-05-05T16:23:58.109Z,3.90
2023-05-05T16:27:00.846Z,3.90
2023-05-05T16:30:02.852Z,3.53
2023-05-05T16:33:04.558Z,3.80
2023-05-05T16:36:10.221Z,3.75
2023-05-05T16:39:12.580Z,4.10
2023-05-05T16:42:14.820Z,4.78
2023-05-05T16:45:16.906Z,4.80
2023-05-05T16:48:18.610Z,4.83
2023-05-05T16:51:30.779Z,5.25
2023-05-05T16:54:35.001Z,5.50
2023-05-05T16:57:39.545Z,5.10
2023-05-05T17:00:55.071Z,5.03
2023-05-05T17:04:01.859Z,5.23
2023-05-05T17:07:03.946Z,5.32
2023-05-05T17:10:07.585Z,4.88
2023-05-05T17:13:12.033Z,5.10
2023-05-05T17:16:13.832Z,5.00
2023-05-05T17:19:29.557Z,5.20
2023-05-05T17:22:35.019Z,5.15
2023-05-05T17:25:40.231Z,4.53
2023-05-05T17:28:43.289Z,4.70
2023-05-05T17:31:50.263Z,5.10
2023-05-05T17:34:54.497Z,4.68
2023-05-05T17:37:57.627Z,5.40
2023-05-05T17:41:28.424Z,5.55
2023-05-05T17:44:35.823Z,5.63
2023-05-05T17:47:40.349Z,5.63
2023-05-05T17:50:46.825Z,5.43
2023-05-05T17:54:00.378Z,5.75
2023-05-05T17:57:04.917Z,5.63
2023-05-05T18:00:11.254Z,6.30
2023-05-05T18:03:22.568Z,6.70
2023-05-05T18:06:29.866Z,7.20
2023-05-05T18:09:34.413Z,6.75
2023-05-05T18:12:39.336Z,6.75
2023-05-05T18:15:45.598Z,6.22
2023-05-05T18:18:57.373Z,5.07
2023-05-05T18:22:03.531Z,3.30
2023-05-05T18:25:08.034Z,2.70
2023-05-05T18:28:21.482Z,2.20
2023-05-05T18:31:27.313Z,2.35
2023-05-05T18:34:31.536Z,1.90
2023-05-05T18:40:51.529Z,1.80
2023-05-05T18:43:55.295Z,1.67
2023-05-05T18:47:00.670Z,1.60
2023-05-05T18:50:05.780Z,1.90
2023-05-05T18:53:13.776Z,1.90
2023-05-05T18:56:19.496Z,2.10
2023-05-05T18:59:24.799Z,2.30
2023-05-05T19:02:30.190Z,2.50
2023-05-05T19:05:32.023Z,2.70
2023-05-05T19:08:35.493Z,3.05
2023-05-05T19:11:42.112Z,3.13
2023-05-05T19:14:53.375Z,3.45
2023-05-05T19:18:18.530Z,3.60
2023-05-05T19:21:21.478Z,3.40
2023-05-05T19:24:34.527Z,3.50
2023-05-05T19:27:41.462Z,3.60
2023-05-05T19:30:54.380Z,3.72
2023-05-05T19:34:04.737Z,3.70
2023-05-05T19:37:08.696Z,3.97
2023-05-05T19:40:11.775Z,4.03
2023-05-05T19:43:18.657Z,4.30
2023-05-05T19:46:32.700Z,4.85
2023-05-05T19:49:38.775Z,4.90
2023-05-05T19:52:41.990Z,5.13
2023-05-05T19:55:50.528Z,4.32
2023-05-05T19:59:05.551Z,4.40
2023-05-05T20:02:28.178Z,4.30
2023-05-05T20:05:34.080Z,4.30
2023-05-05T20:08:41.141Z,4.15
2023-05-05T20:11:43.512Z,3.92
2023-05-05T20:14:50.187Z,4.00
2023-05-05T20:17:51.949Z,4.00
2023-05-05T20:20:54.110Z,4.00
2023-05-05T20:23:55.927Z,3.78
2023-05-05T20:26:58.045Z,3.75
2023-05-05T20:30:03.070Z,3.80
2023-05-05T20:33:05.073Z,3.50
2023-05-05T20:36:07.345Z,3.40
2023-05-05T20:39:14.637Z,3.47
2023-05-05T20:42:17.032Z,3.40
2023-05-05T20:45:18.819Z,3.53
2023-05-05T20:48:20.967Z,3.58
2023-05-05T20:51:22.692Z,3.35
2023-05-05T20:54:24.769Z,3.20
2023-05-05T20:57:27.188Z,3.30
2023-05-05T21:00:28.840Z,3.60
2023-05-05T21:03:32.668Z,3.38
2023-05-05T21:06:34.516Z,3.67
2023-05-05T21:09:36.636Z,3.40
2023-05-05T21:12:41.922Z,3.58
2023-05-05T21:15:43.992Z,3.70
2023-05-05T21:18:47.293Z,3.75
2023-05-05T21:21:49.541Z,3.42
2023-05-05T21:24:51.244Z,3.53
2023-05-05T21:27:53.379Z,3.67
2023-05-05T21:31:10.154Z,3.43
2023-05-05T21:34:18.175Z,3.60
2023-05-05T21:37:20.239Z,4.05
2023-05-05T21:40:22.627Z,3.95
2023-05-05T21:43:25.957Z,3.97
2023-05-05T21:46:27.634Z,3.78
2023-05-05T21:49:29.771Z,4.00
2023-05-05T21:52:31.944Z,3.67
2023-05-05T21:55:33.727Z,3.70
2023-05-05T21:58:35.896Z,4.00
2023-05-05T22:01:37.708Z,3.90
2023-05-05T22:04:40.095Z,4.50
2023-05-05T22:07:42.161Z,4.30
2023-05-05T22:10:43.761Z,4.60
2023-05-05T22:13:46.723Z,4.50
2023-05-05T22:16:48.314Z,4.57
2023-05-05T22:19:51.499Z,4.40
2023-05-05T22:22:53.061Z,4.40
2023-05-05T22:25:55.320Z,4.97
2023-05-05T22:28:57.693Z,4.78
2023-05-05T22:31:59.847Z,5.07
2023-05-05T22:35:01.922Z,4.68
2023-05-05T22:38:04.313Z,4.70
2023-05-05T22:41:07.430Z,4.80
2023-05-05T22:44:10.310Z,4.67
2023-05-05T22:47:13.225Z,4.40
2023-05-05T22:50:15.531Z,4.55
2023-05-05T22:53:20.907Z,4.30
2023-05-05T22:56:23.394Z,4.70
2023-05-05T22:59:25.673Z,4.15
2023-05-05T23:02:27.479Z,4.22
2023-05-05T23:05:29.205Z,4.55
2023-05-05T23:08:33.598Z,4.43
2023-05-05T23:11:36.246Z,4.32
2023-05-05T23:14:38.456Z,4.53
2023-05-05T23:17:40.069Z,4.77
2023-05-05T23:20:42.159Z,4.80
2023-05-05T23:23:45.661Z,4.85
2023-05-05T23:26:47.350Z,4.53
2023-05-05T23:29:51.137Z,4.43
2023-05-05T23:32:53.274Z,5.10
2023-05-05T23:35:54.869Z,5.10
2023-05-05T23:38:56.445Z,5.03
2023-05-05T23:41:58.113Z,5.00
2023-05-05T23:45:00.298Z,4.80
2023-05-05T23:48:04.597Z,4.90
2023-05-05T23:51:06.241Z,5.03
2023-05-05T23:54:07.932Z,5.30
2023-05-05T23:57:10.576Z,5.55
